createdAt,value
2018-09-06T00:01:48.184Z,91.40
2018-09-06T00:04:17.690Z,91.40
2018-09-06T00:06:47.185Z,91.50
2018-09-06T00:09:16.669Z,91.40
2018-09-06T00:11:53.490Z,91.50
2018-09-06T00:14:23.933Z,91.40
2018-09-06T00:16:58.500Z,91.60
2018-09-06T00:19:28.761Z,91.40
2018-09-06T00:21:58.387Z,91.50
2018-09-06T00:24:28.715Z,91.50
2018-09-06T00:26:58.913Z,91.30
2018-09-06T00:29:28.670Z,91.10
2018-09-06T00:32:00.157Z,91.00
2018-09-06T00:34:30.051Z,90.90
2018-09-06T00:36:59.548Z,90.90
2018-09-06T00:39:29.978Z,90.90
2018-09-06T00:42:00.547Z,91.00
2018-09-06T00:44:32.210Z,91.00
2018-09-06T00:47:03.461Z,91.30
2018-09-06T00:49:33.118Z,91.60
2018-09-06T00:52:04.562Z,91.70
2018-09-06T00:54:35.272Z,91.80
2018-09-06T00:57:06.291Z,92.00
2018-09-06T00:59:37.972Z,91.90
2018-09-06T01:02:09.480Z,91.90
2018-09-06T01:04:41.437Z,91.90
2018-09-06T01:07:11.014Z,92.40
2018-09-06T01:09:41.233Z,92.20
2018-09-06T01:12:14.350Z,92.20
2018-09-06T01:14:44.533Z,92.10
2018-09-06T01:17:14.936Z,91.90
2018-09-06T01:19:45.246Z,92.10
2018-09-06T01:22:16.285Z,92.10
2018-09-06T01:24:46.613Z,92.10
2018-09-06T01:27:16.702Z,92.00
2018-09-06T01:29:47.320Z,92.30
2018-09-06T01:32:18.699Z,92.40
2018-09-06T01:34:49.797Z,92.30
2018-09-06T01:37:19.357Z,92.30
2018-09-06T01:39:49.812Z,92.60
2018-09-06T01:42:20.787Z,92.80
2018-09-06T01:44:51.243Z,92.80
2018-09-06T01:47:21.620Z,92.80
2018-09-06T01:49:52.836Z,92.70
2018-09-06T01:52:24.101Z,92.40
2018-09-06T01:54:54.387Z,92.30
2018-09-06T01:57:24.581Z,92.40
2018-09-06T01:59:55.434Z,92.20
2018-09-06T02:02:26.392Z,92.00
2018-09-06T02:04:56.898Z,91.90
2018-09-06T02:07:27.641Z,92.30
2018-09-06T02:09:57.220Z,92.30
2018-09-06T02:12:27.688Z,92.60
2018-09-06T02:14:57.333Z,92.50
2018-09-06T02:17:26.997Z,92.60
2018-09-06T02:19:56.838Z,92.50
2018-09-06T02:22:26.540Z,92.70
2018-09-06T02:24:57.385Z,92.90
2018-09-06T02:27:27.566Z,93.10
2018-09-06T02:29:59.433Z,93.30
2018-09-06T02:32:29.751Z,93.50
2018-09-06T02:35:00.624Z,93.80
2018-09-06T02:37:30.343Z,93.70
2018-09-06T02:40:01.517Z,93.60
2018-09-06T02:42:42.622Z,93.70
2018-09-06T02:45:12.379Z,93.60
2018-09-06T02:47:47.557Z,93.60
2018-09-06T02:50:22.474Z,93.80
2018-09-06T02:52:54.577Z,93.70
2018-09-06T02:55:26.201Z,93.50
2018-09-06T02:57:55.950Z,93.20
2018-09-06T03:00:28.021Z,93.00
2018-09-06T03:02:58.434Z,93.10
2018-09-06T03:05:28.945Z,93.10
2018-09-06T03:07:59.749Z,93.20
2018-09-06T03:10:47.977Z,93.20
2018-09-06T03:13:19.480Z,93.00
2018-09-06T03:15:49.592Z,92.80
2018-09-06T03:18:19.950Z,92.80
2018-09-06T03:20:49.725Z,92.80
2018-09-06T03:23:20.442Z,92.70
2018-09-06T03:25:49.904Z,92.50
2018-09-06T03:28:20.065Z,92.30
2018-09-06T03:30:49.590Z,92.10
2018-09-06T03:33:19.291Z,92.00
2018-09-06T03:35:49.219Z,91.80
2018-09-06T03:38:18.972Z,91.70
2018-09-06T03:40:49.906Z,91.60
2018-09-06T03:43:20.282Z,91.80
2018-09-06T03:45:50.554Z,91.30
2018-09-06T03:48:20.309Z,91.30
2018-09-06T03:50:51.469Z,91.20
2018-09-06T03:53:23.698Z,91.20
2018-09-06T03:55:53.331Z,91.10
2018-09-06T03:58:23.409Z,91.20
2018-09-06T04:00:53.506Z,91.30
2018-09-06T04:03:23.846Z,91.50
2018-09-06T04:05:54.200Z,91.60
2018-09-06T04:08:24.582Z,91.60
2018-09-06T04:10:55.971Z,91.60
2018-09-06T04:13:25.416Z,91.50
2018-09-06T04:15:56.537Z,91.80
2018-09-06T04:18:27.811Z,92.20
2018-09-06T04:20:58.401Z,92.60
2018-09-06T04:23:28.129Z,92.70
2018-09-06T04:25:59.678Z,92.80
2018-09-06T04:28:29.417Z,92.80
2018-09-06T04:30:59.165Z,92.60
2018-09-06T04:33:31.407Z,92.50
2018-09-06T04:36:02.419Z,92.30
2018-09-06T04:38:32.789Z,92.10
2018-09-06T04:41:03.403Z,92.20
2018-09-06T04:43:33.657Z,92.10
2018-09-06T04:46:03.414Z,92.00
2018-09-06T04:48:33.643Z,91.80
2018-09-06T04:51:04.152Z,91.80
2018-09-06T04:53:34.347Z,91.80
2018-09-06T04:56:04.804Z,91.70
2018-09-06T04:58:35.210Z,91.70
2018-09-06T05:01:06.524Z,91.60
2018-09-06T05:03:36.631Z,91.50
2018-09-06T05:06:08.531Z,92.00
2018-09-06T05:08:38.419Z,92.40
2018-09-06T05:11:10.814Z,92.30
2018-09-06T05:13:42.777Z,92.20
2018-09-06T05:16:13.694Z,92.00
2018-09-06T05:18:43.340Z,91.80
2018-09-06T05:21:13.447Z,91.80
2018-09-06T05:23:43.419Z,91.80
2018-09-06T05:26:13.172Z,91.70
2018-09-06T05:28:47.034Z,91.80
2018-09-06T05:31:17.616Z,91.80
2018-09-06T05:33:48.063Z,92.10
2018-09-06T05:36:17.729Z,92.00
2018-09-06T05:38:48.415Z,92.10
2018-09-06T05:41:18.916Z,92.00
2018-09-06T05:43:48.813Z,92.00
2018-09-06T05:46:19.701Z,91.90
2018-09-06T05:48:50.746Z,91.70
2018-09-06T05:51:21.380Z,91.60
2018-09-06T05:53:51.720Z,91.40
2018-09-06T05:57:47.531Z,91.50
2018-09-06T06:00:23.117Z,91.30
2018-09-06T06:02:54.600Z,91.30
2018-09-06T06:05:25.401Z,91.20
2018-09-06T06:08:05.999Z,91.00
2018-09-06T06:10:36.325Z,91.00
2018-09-06T06:13:07.871Z,90.90
2018-09-06T06:15:38.553Z,90.90
2018-09-06T06:18:08.508Z,90.70
2018-09-06T06:20:39.401Z,90.60
2018-09-06T06:23:10.097Z,90.20
2018-09-06T06:25:41.482Z,90.10
2018-09-06T06:28:12.549Z,89.40
2018-09-06T06:30:43.263Z,88.90
2018-09-06T06:33:12.883Z,88.50
2018-09-06T06:35:42.777Z,87.80
2018-09-06T06:38:13.427Z,87.50
2018-09-06T06:40:44.000Z,84.70
2018-09-06T06:43:14.392Z,83.50
2018-09-06T06:45:45.102Z,83.20
2018-09-06T06:48:14.968Z,83.10
2018-09-06T06:50:45.958Z,84.50
2018-09-06T06:53:20.700Z,84.40
2018-09-06T06:55:50.561Z,84.60
2018-09-06T06:58:21.040Z,84.30
2018-09-06T07:00:51.520Z,83.00
2018-09-06T07:03:22.028Z,83.10
2018-09-06T07:05:52.625Z,81.70
2018-09-06T07:08:23.032Z,82.30
2018-09-06T07:10:52.764Z,83.90
2018-09-06T07:13:22.741Z,83.20
2018-09-06T07:15:52.853Z,83.20
2018-09-06T07:18:22.871Z,82.60
2018-09-06T07:20:53.362Z,83.90
2018-09-06T07:23:23.109Z,84.40
2018-09-06T07:25:52.980Z,83.20
2018-09-06T07:28:23.262Z,83.30
2018-09-06T07:30:53.464Z,83.10
2018-09-06T07:33:23.492Z,82.40
2018-09-06T07:35:53.679Z,82.10
2018-09-06T07:38:23.965Z,82.10
2018-09-06T07:40:54.311Z,81.50
2018-09-06T07:43:24.589Z,80.70
2018-09-06T07:45:54.520Z,81.10
2018-09-06T07:48:25.902Z,82.30
2018-09-06T07:50:55.702Z,82.40
2018-09-06T07:53:26.799Z,82.60
2018-09-06T07:55:56.678Z,82.70
2018-09-06T07:58:26.400Z,81.90
2018-09-06T08:00:56.948Z,81.10
2018-09-06T08:03:27.324Z,81.00
2018-09-06T08:05:57.264Z,81.20
2018-09-06T08:08:27.021Z,80.90
2018-09-06T08:10:56.744Z,80.30
2018-09-06T08:13:28.108Z,80.00
2018-09-06T08:15:58.796Z,79.80
2018-09-06T08:18:28.369Z,78.30
2018-09-06T08:20:57.915Z,77.40
2018-09-06T08:23:28.472Z,76.90
2018-09-06T08:25:59.636Z,78.00
2018-09-06T08:28:30.530Z,78.00
2018-09-06T08:31:02.097Z,77.40
2018-09-06T08:33:33.250Z,77.70
2018-09-06T08:36:07.599Z,77.80
2018-09-06T08:38:41.905Z,77.90
2018-09-06T08:41:12.511Z,77.30
2018-09-06T08:43:43.453Z,75.70
2018-09-06T08:46:14.021Z,75.90
2018-09-06T08:48:51.801Z,75.90
2018-09-06T08:51:22.703Z,76.00
2018-09-06T08:53:52.241Z,75.50
2018-09-06T08:56:22.047Z,75.30
2018-09-06T08:58:52.174Z,75.50
2018-09-06T09:01:27.805Z,75.50
2018-09-06T09:03:57.982Z,75.70
2018-09-06T09:06:28.310Z,75.60
2018-09-06T09:08:58.380Z,75.40
2018-09-06T09:11:28.696Z,75.00
2018-09-06T09:13:59.928Z,74.60
2018-09-06T09:16:30.363Z,74.70
2018-09-06T09:19:00.227Z,74.70
2018-09-06T09:21:29.978Z,74.60
2018-09-06T09:24:00.363Z,75.30
2018-09-06T09:26:30.146Z,73.70
2018-09-06T09:31:37.065Z,73.10
2018-09-06T09:34:07.762Z,72.50
2018-09-06T09:36:37.767Z,71.20
2018-09-06T09:39:09.409Z,69.00
2018-09-06T09:41:43.813Z,69.40
2018-09-06T09:44:14.734Z,68.70
2018-09-06T09:49:13.665Z,67.00
2018-09-06T09:51:43.417Z,67.20
2018-09-06T09:54:14.049Z,67.90
2018-09-06T09:56:45.544Z,67.90
2018-09-06T09:59:16.010Z,67.40
2018-09-06T10:01:55.196Z,67.70
2018-09-06T10:04:31.032Z,68.60
2018-09-06T10:07:05.741Z,66.70
2018-09-06T10:09:36.629Z,67.40
2018-09-06T10:12:06.495Z,66.30
2018-09-06T10:14:37.639Z,66.60
2018-09-06T10:17:07.601Z,66.60
2018-09-06T10:19:37.444Z,66.30
2018-09-06T10:22:07.341Z,65.40
2018-09-06T10:24:36.838Z,65.10
2018-09-06T10:27:06.545Z,64.80
2018-09-06T10:29:36.742Z,65.50
2018-09-06T10:32:07.248Z,66.00
2018-09-06T10:34:40.816Z,65.60
2018-09-06T10:37:10.415Z,65.30
2018-09-06T10:39:40.514Z,65.50
2018-09-06T10:42:10.064Z,65.70
2018-09-06T10:44:40.551Z,65.70
2018-09-06T10:47:10.859Z,66.40
2018-09-06T10:49:42.084Z,64.40
2018-09-06T10:52:11.934Z,65.00
2018-09-06T10:54:42.553Z,63.70
2018-09-06T10:57:12.940Z,63.60
2018-09-06T10:59:42.513Z,63.80
2018-09-06T11:02:12.690Z,64.10
2018-09-06T11:04:43.563Z,64.20
2018-09-06T11:07:18.878Z,64.10
2018-09-06T11:09:48.396Z,63.50
2018-09-06T11:12:17.964Z,63.70
2018-09-06T11:14:47.561Z,64.00
2018-09-06T11:17:17.273Z,64.40
2018-09-06T11:19:46.715Z,64.80
2018-09-06T11:22:20.635Z,64.80
2018-09-06T11:24:50.028Z,63.90
2018-09-06T11:27:20.462Z,63.90
2018-09-06T11:29:50.056Z,64.40
2018-09-06T11:32:19.529Z,64.10
2018-09-06T11:34:49.093Z,65.20
2018-09-06T11:37:18.602Z,64.50
2018-09-06T11:39:48.406Z,63.80
2018-09-06T11:42:17.912Z,63.30
2018-09-06T11:44:47.398Z,62.90
2018-09-06T11:47:17.607Z,62.70
2018-09-06T11:49:47.825Z,62.50
2018-09-06T11:52:18.533Z,62.40
2018-09-06T11:54:48.076Z,61.10
2018-09-06T11:57:18.093Z,61.90
2018-09-06T11:59:47.586Z,60.60
2018-09-06T12:02:18.577Z,61.50
2018-09-06T12:04:48.182Z,61.80
2018-09-06T12:07:18.644Z,62.60
2018-09-06T12:09:48.176Z,62.40
2018-09-06T12:12:22.068Z,62.00
2018-09-06T12:14:52.725Z,61.60
2018-09-06T12:17:26.494Z,60.70
2018-09-06T12:19:56.505Z,60.10
2018-09-06T12:22:26.293Z,59.50
2018-09-06T12:24:56.565Z,58.40
2018-09-06T12:27:26.078Z,58.50
2018-09-06T12:29:56.197Z,59.50
2018-09-06T12:32:26.474Z,60.00
2018-09-06T12:34:55.981Z,59.60
2018-09-06T12:37:25.945Z,59.50
2018-09-06T12:39:56.040Z,59.00
2018-09-06T12:42:26.314Z,58.70
2018-09-06T12:44:56.402Z,57.10
2018-09-06T12:47:26.832Z,56.40
2018-09-06T12:49:56.343Z,56.10
2018-09-06T12:52:26.581Z,56.40
2018-09-06T12:55:00.586Z,57.00
2018-09-06T12:57:30.647Z,57.90
2018-09-06T13:00:00.217Z,58.40
2018-09-06T13:02:29.750Z,58.00
2018-09-06T13:04:59.220Z,58.40
2018-09-06T13:07:33.210Z,58.40
2018-09-06T13:10:03.461Z,58.10
2018-09-06T13:12:33.007Z,58.60
2018-09-06T13:15:03.190Z,58.40
2018-09-06T13:17:35.629Z,58.70
2018-09-06T13:20:05.504Z,59.10
2018-09-06T13:22:35.726Z,58.70
2018-09-06T13:25:06.208Z,59.20
2018-09-06T13:27:44.141Z,59.00
2018-09-06T13:30:16.913Z,59.10
2018-09-06T13:32:47.014Z,58.20
2018-09-06T13:35:18.445Z,57.60
2018-09-06T13:37:48.525Z,56.50
2018-09-06T13:40:18.335Z,56.00
2018-09-06T13:42:47.843Z,55.70
2018-09-06T13:45:18.289Z,55.30
2018-09-06T13:47:47.813Z,55.80
2018-09-06T13:50:17.380Z,55.90
2018-09-06T13:52:47.565Z,55.90
2018-09-06T13:55:22.602Z,56.50
2018-09-06T13:57:52.516Z,56.40
2018-09-06T14:00:23.986Z,56.40
2018-09-06T14:02:54.356Z,56.10
2018-09-06T14:05:25.246Z,56.00
2018-09-06T14:07:54.757Z,55.80
2018-09-06T14:10:25.120Z,54.80
2018-09-06T14:12:55.893Z,55.60
2018-09-06T14:15:26.700Z,55.30
2018-09-06T14:17:56.809Z,55.00
2018-09-06T14:20:26.262Z,55.30
2018-09-06T14:22:56.379Z,55.20
2018-09-06T14:25:26.529Z,56.10
2018-09-06T14:27:57.600Z,56.10
2018-09-06T14:30:27.094Z,56.30
2018-09-06T14:32:57.387Z,55.90
2018-09-06T14:35:28.066Z,56.40
2018-09-06T14:37:58.122Z,56.70
2018-09-06T14:40:27.531Z,56.80
2018-09-06T14:42:57.393Z,56.80
2018-09-06T14:45:26.912Z,56.30
2018-09-06T14:47:56.391Z,56.40
2018-09-06T14:50:30.641Z,56.40
2018-09-06T14:53:06.712Z,56.50
2018-09-06T14:55:36.448Z,56.10
2018-09-06T14:58:07.018Z,56.10
2018-09-06T15:00:36.494Z,56.30
2018-09-06T15:03:06.185Z,56.00
2018-09-06T15:05:36.785Z,55.80
2018-09-06T15:08:07.789Z,55.80
2018-09-06T15:10:37.894Z,55.30
2018-09-06T15:13:07.667Z,55.70
2018-09-06T15:15:37.370Z,54.50
2018-09-06T15:18:08.128Z,54.30
2018-09-06T15:20:38.536Z,54.10
2018-09-06T15:23:09.778Z,53.90
2018-09-06T15:25:40.285Z,53.90
2018-09-06T15:28:10.399Z,53.80
2018-09-06T15:30:40.636Z,53.90
2018-09-06T15:33:10.116Z,53.60
2018-09-06T15:35:40.332Z,53.20
2018-09-06T15:38:09.776Z,53.50
2018-09-06T15:40:40.007Z,53.10
2018-09-06T15:43:09.926Z,52.30
2018-09-06T15:45:45.841Z,52.90
2018-09-06T15:48:15.562Z,52.90
2018-09-06T15:50:46.668Z,52.80
2018-09-06T15:53:21.347Z,52.40
2018-09-06T15:55:50.905Z,51.80
2018-09-06T15:58:22.089Z,51.70
2018-09-06T16:00:52.323Z,50.70
2018-09-06T16:03:22.255Z,50.40
2018-09-06T16:05:53.960Z,50.70
2018-09-06T16:08:23.917Z,50.40
2018-09-06T16:10:53.385Z,49.80
2018-09-06T16:13:23.647Z,49.50
2018-09-06T16:15:53.149Z,49.20
2018-09-06T16:18:23.937Z,48.90
2018-09-06T16:20:53.920Z,48.90
2018-09-06T16:23:23.945Z,48.60
2018-09-06T16:25:54.128Z,48.10
2018-09-06T16:28:24.965Z,48.10
2018-09-06T16:30:56.185Z,47.60
2018-09-06T16:33:26.062Z,48.00
2018-09-06T16:35:58.500Z,48.10
2018-09-06T16:38:27.943Z,48.40
2018-09-06T16:40:57.399Z,49.60
2018-09-06T16:43:27.407Z,49.20
2018-09-06T16:45:58.036Z,49.60
2018-09-06T16:48:27.790Z,49.90
2018-09-06T16:50:57.299Z,50.20
2018-09-06T16:53:26.762Z,50.40
2018-09-06T16:55:56.293Z,50.70
2018-09-06T16:58:26.840Z,51.10
2018-09-06T17:00:56.467Z,51.50
2018-09-06T17:03:26.112Z,52.00
2018-09-06T17:05:56.165Z,52.40
2018-09-06T17:08:26.217Z,52.80
2018-09-06T17:10:56.994Z,53.10
2018-09-06T17:13:26.431Z,53.50
2018-09-06T17:15:56.649Z,54.00
2018-09-06T17:18:26.503Z,54.20
2018-09-06T17:20:56.656Z,54.40
2018-09-06T17:23:26.118Z,54.80
2018-09-06T17:25:56.076Z,55.00
2018-09-06T17:28:25.954Z,55.40
2018-09-06T17:30:59.665Z,55.70
2018-09-06T17:33:29.613Z,55.70
2018-09-06T17:36:00.126Z,55.90
2018-09-06T17:38:29.711Z,56.20
2018-09-06T17:40:59.234Z,56.60
2018-09-06T17:43:30.794Z,56.70
2018-09-06T17:46:00.277Z,57.00
2018-09-06T17:48:29.794Z,57.20
2018-09-06T17:50:59.213Z,57.50
2018-09-06T17:53:29.448Z,58.00
2018-09-06T17:55:58.954Z,58.20
2018-09-06T17:58:28.483Z,58.60
2018-09-06T18:01:09.375Z,58.60
2018-09-06T18:03:40.487Z,58.80
2018-09-06T18:06:10.221Z,59.00
2018-09-06T18:08:41.240Z,59.30
2018-09-06T18:11:11.062Z,59.50
2018-09-06T18:13:42.045Z,59.70
2018-09-06T18:16:13.140Z,60.10
2018-09-06T18:18:42.861Z,60.20
2018-09-06T18:21:12.538Z,60.40
2018-09-06T18:23:42.626Z,60.60
2018-09-06T18:26:12.829Z,60.60
2018-09-06T18:28:42.855Z,60.80
2018-09-06T18:31:12.544Z,61.10
2018-09-06T18:33:42.418Z,61.20
2018-09-06T18:36:14.508Z,61.50
2018-09-06T18:38:44.616Z,61.70
2018-09-06T18:41:14.092Z,61.90
2018-09-06T18:43:44.614Z,62.00
2018-09-06T18:46:17.363Z,62.20
2018-09-06T18:48:46.961Z,62.20
2018-09-06T18:51:17.981Z,62.60
2018-09-06T18:53:49.026Z,62.90
2018-09-06T18:56:19.937Z,63.20
2018-09-06T18:58:53.806Z,63.40
2018-09-06T19:01:26.324Z,63.00
2018-09-06T19:03:56.847Z,62.70
2018-09-06T19:06:27.342Z,63.10
2018-09-06T19:08:58.368Z,63.70
2018-09-06T19:11:28.830Z,64.30
2018-09-06T19:13:59.216Z,65.20
2018-09-06T19:16:28.799Z,65.70
2018-09-06T19:18:58.321Z,66.90
2018-09-06T19:21:28.128Z,67.90
2018-09-06T19:23:57.720Z,68.60
2018-09-06T19:26:27.806Z,69.60
2018-09-06T19:28:57.574Z,70.40
2018-09-06T19:31:31.496Z,71.00
2018-09-06T19:34:02.181Z,71.10
2018-09-06T19:36:33.658Z,71.70
2018-09-06T19:39:07.713Z,72.10
2018-09-06T19:41:37.458Z,72.70
2018-09-06T19:44:12.685Z,73.40
2018-09-06T19:46:42.768Z,73.80
2018-09-06T19:49:13.349Z,74.00
2018-09-06T19:51:43.659Z,74.60
2018-09-06T19:54:15.124Z,75.30
2018-09-06T19:56:45.935Z,75.10
2018-09-06T19:59:22.193Z,75.20
2018-09-06T20:01:52.105Z,75.30
2018-09-06T20:04:22.762Z,75.90
2018-09-06T20:06:53.636Z,76.00
2018-09-06T20:09:28.142Z,76.20
2018-09-06T20:11:57.960Z,76.20
2018-09-06T20:14:28.619Z,76.50
2018-09-06T20:16:59.408Z,76.80
2018-09-06T20:19:29.114Z,76.80
2018-09-06T20:22:00.222Z,76.40
2018-09-06T20:24:34.002Z,76.10
2018-09-06T20:27:04.115Z,76.10
2018-09-06T20:29:34.517Z,76.30
2018-09-06T20:32:06.108Z,76.90
2018-09-06T20:34:36.574Z,77.50
2018-09-06T20:37:07.081Z,77.70
2018-09-06T20:39:36.665Z,78.10
2018-09-06T20:42:06.702Z,78.40
2018-09-06T20:44:36.640Z,78.40
2018-09-06T20:47:06.672Z,78.50
2018-09-06T20:49:36.969Z,78.60
2018-09-06T20:52:07.777Z,78.90
2018-09-06T20:54:39.117Z,79.60
2018-09-06T20:57:08.979Z,80.10
2018-09-06T20:59:45.232Z,80.30
2018-09-06T21:02:20.007Z,80.60
2018-09-06T21:04:50.399Z,81.20
2018-09-06T21:07:20.043Z,82.30
2018-09-06T21:09:49.674Z,81.40
2018-09-06T21:12:19.830Z,81.40
2018-09-06T21:14:49.334Z,81.60
2018-09-06T21:17:19.277Z,81.40
2018-09-06T21:19:48.821Z,81.20
2018-09-06T21:22:18.455Z,81.30
2018-09-06T21:24:48.778Z,81.50
2018-09-06T21:27:18.342Z,81.90
2018-09-06T21:29:47.861Z,81.50
2018-09-06T21:32:17.362Z,81.40
2018-09-06T21:34:47.205Z,81.10
2018-09-06T21:37:16.721Z,81.10
2018-09-06T21:39:46.233Z,81.40
2018-09-06T21:42:16.204Z,81.50
2018-09-06T21:44:46.553Z,81.50
2018-09-06T21:47:16.596Z,81.90
2018-09-06T21:49:49.942Z,81.40
2018-09-06T21:52:19.973Z,81.30
2018-09-06T21:54:49.416Z,81.20
2018-09-06T21:57:18.905Z,81.10
2018-09-06T21:59:48.526Z,81.20
2018-09-06T22:02:23.245Z,81.10
2018-09-06T22:04:53.870Z,81.10
2018-09-06T22:07:33.469Z,81.10
2018-09-06T22:10:04.254Z,81.20
2018-09-06T22:12:39.368Z,81.50
2018-09-06T22:15:10.777Z,81.90
2018-09-06T22:17:42.007Z,82.60
2018-09-06T22:20:11.468Z,82.70
2018-09-06T22:22:43.434Z,83.60
2018-09-06T22:25:13.219Z,83.60
2018-09-06T22:27:44.733Z,83.60
2018-09-06T22:30:14.321Z,83.40
2018-09-06T22:32:43.974Z,83.40
2018-09-06T22:35:14.174Z,83.40
2018-09-06T22:37:43.718Z,83.20
2018-09-06T22:40:13.842Z,83.30
2018-09-06T22:42:44.771Z,83.10
2018-09-06T22:45:14.654Z,83.20
2018-09-06T22:47:44.636Z,83.50
2018-09-06T22:50:15.713Z,83.70
2018-09-06T22:52:45.938Z,83.60
2018-09-06T22:55:16.267Z,83.70
2018-09-06T22:57:47.031Z,83.90
2018-09-06T23:00:19.905Z,84.40
2018-09-06T23:02:54.831Z,84.50
2018-09-06T23:05:26.170Z,84.60
2018-09-06T23:07:56.655Z,84.40
2018-09-06T23:10:26.584Z,85.10
2018-09-06T23:12:56.878Z,85.40
2018-09-06T23:15:26.561Z,85.40
2018-09-06T23:17:57.833Z,85.60
2018-09-06T23:20:28.365Z,85.40
2018-09-06T23:22:58.844Z,85.50
2018-09-06T23:25:28.788Z,85.30
2018-09-06T23:27:59.300Z,85.50
2018-09-06T23:30:29.465Z,85.80
2018-09-06T23:33:00.289Z,85.80
2018-09-06T23:35:30.558Z,86.10
2018-09-06T23:38:02.309Z,86.00
2018-09-06T23:40:38.217Z,85.60
2018-09-06T23:43:09.162Z,85.10
2018-09-06T23:45:41.313Z,85.10
2018-09-06T23:48:11.665Z,85.20
2018-09-06T23:50:46.336Z,85.00
2018-09-06T23:53:22.742Z,84.90
2018-09-06T23:55:53.457Z,84.70
2018-09-06T23:58:24.333Z,84.50
